Dole Colombia — C6QZ5 — position and weather

sailwx.info

Track history (hours):
 
Tides and Currents Weather Stations Pressure Air Temp Water Temp Dewpoint Dewpoint Depression Visibility Wind Speed Wind Dir Waves Ship Positions

Dole Colombia

Last reported at 2015-Jun-30 12:31 UTC. Time now 2015-Jul-07 11:07 UTC.
Position N 37°14' W 074°26'.

Length 205 m; draft 8.6 m.

Type: Ship. MMSI: 309403000.

Date/timePositionNaut miles runAvg speedWind from/ knotsBaromVisibWave heightAir tempDewpointWater temp
2015-Jun-30 12:31N 37°14' W 074°26'4418.0
2015-Jun-30 10:04N 37°57' W 074°35'2415.8
2015-Jun-30 08:33N 38°20' W 074°42'1515.5
2015-Jun-30 07:33N 38°34' W 074°51'1716.7
2015-Jun-30 06:34N 38°48' W 075°03'1515.0
2015-Jun-30 05:34N 39°02' W 075°10'4314.3
2015-Jun-30 02:33N 39°42' W 075°31'1 0.1
2015-Jun-29 04:19N 39°43' W 075°31'0 0.0
2015-Jun-29 03:31N 39°43' W 075°31'0 0.0
2015-Jun-29 02:19N 39°43' W 075°31'0 0.0
2015-Jun-29 01:25N 39°43' W 075°31'0 0.0
2015-Jun-28 11:33N 39°43' W 075°31'7 6.8
2015-Jun-28 10:33N 39°37' W 075°35'3716.1
2015-Jun-28 08:16N 39°05' W 075°11'1217.4
2015-Jun-28 07:33N 38°54' W 075°05'1313.3
2015-Jun-28 06:33N 38°43' W 074°55'75118.8
2015-Jun-26 14:33N 26°52' W 079°45'2322.9
2015-Jun-26 13:33N 26°30' W 079°47'2222.4
2015-Jun-26 12:34N 26°07' W 079°48'  
Track history (hours):
 
Tides and Currents Weather Stations Pressure Air Temp Water Temp Dewpoint Dewpoint Depression Visibility Wind Speed Wind Dir Waves Ship Positions

Dole Colombia

Last reported at 2015-Jun-30 12:31 UTC. Time now 2015-Jul-07 11:07 UTC.
Position N 37°14' W 074°26'.

Length 205 m; draft 8.6 m.

Type: Ship. MMSI: 309403000.

Date/timePositionNaut miles runAvg speedWind from/ knotsBaromVisibWave heightAir tempDewpointWater temp
2015-Jun-30 12:31N 37°14' W 074°26'4418.0
2015-Jun-30 10:04N 37°57' W 074°35'2415.8
2015-Jun-30 08:33N 38°20' W 074°42'1515.5
2015-Jun-30 07:33N 38°34' W 074°51'1716.7
2015-Jun-30 06:34N 38°48' W 075°03'1515.0
2015-Jun-30 05:34N 39°02' W 075°10'4314.3
2015-Jun-30 02:33N 39°42' W 075°31'1 0.1
2015-Jun-29 04:19N 39°43' W 075°31'0 0.0
2015-Jun-29 03:31N 39°43' W 075°31'0 0.0
2015-Jun-29 02:19N 39°43' W 075°31'0 0.0
2015-Jun-29 01:25N 39°43' W 075°31'0 0.0
2015-Jun-28 11:33N 39°43' W 075°31'7 6.8
2015-Jun-28 10:33N 39°37' W 075°35'3716.1
2015-Jun-28 08:16N 39°05' W 075°11'1217.4
2015-Jun-28 07:33N 38°54' W 075°05'1313.3
2015-Jun-28 06:33N 38°43' W 074°55'75118.8
2015-Jun-26 14:33N 26°52' W 079°45'2322.9
2015-Jun-26 13:33N 26°30' W 079°47'2222.4
2015-Jun-26 12:34N 26°07' W 079°48'  

Dump ship's entire track history